Time;durP1;ratioP1;P1;durP2;ratioP2;P2;SDS_P1;SDS_P2;PMS_P1;PMS_P2;Temp;Humidity;BMP_temperature;BMP_pressure;BME280_temperature;BME280_humidity;BME280_pressure;Samples;Min_cycle;Max_cycle;Signal;HPM_P1;HPM_P2
2021/11/06 00:00:14;;;;;;;14.90;7.80;;;7.10;99.90;;;;;;6149355;23;20175;-79
2021/11/06 00:02:40;;;;;;;13.73;7.33;;;7.20;99.90;;;;;;6149512;23;20520;-78
2021/11/06 00:05:06;;;;;;;12.43;7.33;;;7.20;99.90;;;;;;6122948;23;20163;-79
2021/11/06 00:07:32;;;;;;;14.63;8.10;;;7.30;99.90;;;;;;6149787;23;20158;-78
2021/11/06 00:09:58;;;;;;;13.73;7.13;;;7.30;99.90;;;;;;6123215;23;20188;-79
2021/11/06 00:12:23;;;;;;;12.50;7.40;;;7.30;99.90;;;;;;6149285;23;20156;-77
2021/11/06 00:14:49;;;;;;;15.27;6.73;;;7.30;99.90;;;;;;6148691;23;20160;-78
2021/11/06 00:17:14;;;;;;;11.77;6.53;;;7.30;99.90;;;;;;6148986;23;20163;-79
2021/11/06 00:19:40;;;;;;;13.53;6.57;;;7.30;99.90;;;;;;6148449;23;20274;-78
2021/11/06 00:22:07;;;;;;;13.03;6.63;;;7.20;99.90;;;;;;6148453;23;20155;-77
2021/11/06 00:24:32;;;;;;;13.13;6.70;;;7.20;99.90;;;;;;6149114;23;20152;-77
2021/11/06 00:26:58;;;;;;;10.07;6.40;;;7.20;99.90;;;;;;6122277;23;20266;-78
2021/11/06 00:29:23;;;;;;;13.50;7.00;;;7.20;99.90;;;;;;6149216;23;20630;-78
2021/11/06 00:31:49;;;;;;;17.73;7.93;;;7.20;99.90;;;;;;6148459;23;20152;-79
2021/11/06 00:34:15;;;;;;;14.03;7.70;;;7.20;99.90;;;;;;6148904;23;20148;-78
2021/11/06 00:36:41;;;;;;;13.70;6.77;;;7.20;99.90;;;;;;6149353;23;20155;-78
2021/11/06 00:39:07;;;;;;;18.70;8.07;;;7.20;99.90;;;;;;6148978;23;20171;-79
2021/11/06 00:41:33;;;;;;;12.67;7.13;;;7.30;99.90;;;;;;6148624;23;20187;-79
2021/11/06 00:43:59;;;;;;;11.63;6.37;;;7.30;99.90;;;;;;6149030;23;20863;-79
2021/11/06 00:46:25;;;;;;;12.20;6.60;;;7.30;99.90;;;;;;6122991;23;20163;-78
2021/11/06 00:48:50;;;;;;;15.10;7.17;;;7.40;99.90;;;;;;6148928;23;20178;-78
2021/11/06 00:51:16;;;;;;;11.60;7.07;;;7.40;99.90;;;;;;6148713;23;20151;-80
2021/11/06 00:53:42;;;;;;;13.57;7.23;;;7.50;99.90;;;;;;6148502;23;20465;-78
2021/11/06 00:56:08;;;;;;;11.67;7.20;;;7.50;99.90;;;;;;6149326;23;20159;-79
2021/11/06 00:58:33;;;;;;;14.33;7.37;;;7.50;99.90;;;;;;6148811;23;20190;-78
2021/11/06 01:00:59;;;;;;;11.33;6.40;;;7.60;99.90;;;;;;6148831;23;20244;-78
2021/11/06 01:03:24;;;;;;;12.13;7.33;;;7.60;99.90;;;;;;6148746;23;20159;-78
2021/11/06 01:05:50;;;;;;;12.13;6.03;;;7.70;99.90;;;;;;6148708;23;20626;-79
2021/11/06 01:08:16;;;;;;;11.23;7.23;;;7.60;99.90;;;;;;6148500;23;20171;-78
2021/11/06 01:10:43;;;;;;;11.97;6.40;;;7.70;99.90;;;;;;6122264;23;20166;-78
2021/11/06 01:13:09;;;;;;;11.83;7.37;;;7.70;99.90;;;;;;6149034;23;20156;-78
2021/11/06 01:15:35;;;;;;;10.70;6.53;;;7.60;99.90;;;;;;6148875;23;20608;-78
2021/11/06 01:18:00;;;;;;;10.30;6.50;;;7.70;99.90;;;;;;6148073;23;20191;-79
2021/11/06 01:20:26;;;;;;;11.10;6.70;;;7.70;99.90;;;;;;6146677;23;20179;-78
2021/11/06 01:22:52;;;;;;;11.83;6.40;;;7.70;99.90;;;;;;6147226;23;20600;-78
2021/11/06 01:25:18;;;;;;;11.50;6.77;;;7.60;99.90;;;;;;6147210;23;20160;-78
2021/11/06 01:27:44;;;;;;;11.23;7.03;;;7.70;99.90;;;;;;6120734;23;20194;-78
2021/11/06 01:30:10;;;;;;;10.57;6.90;;;7.70;99.90;;;;;;6147144;23;20156;-78
2021/11/06 01:32:37;;;;;;;10.67;6.70;;;7.70;99.90;;;;;;6146758;23;20170;-78
2021/11/06 01:35:05;;;;;;;10.93;6.53;;;7.70;99.90;;;;;;6147301;23;20222;-79
2021/11/06 01:37:30;;;;;;;9.33;6.03;;;7.70;99.90;;;;;;6120659;23;20155;-78
2021/11/06 01:39:56;;;;;;;11.17;6.63;;;7.70;99.90;;;;;;6146165;23;20180;-77
2021/11/06 01:42:23;;;;;;;12.50;6.87;;;7.80;99.90;;;;;;6146365;23;20605;-78
2021/11/06 01:44:48;;;;;;;12.47;6.60;;;7.70;99.90;;;;;;6120236;23;20164;-78
2021/11/06 01:47:14;;;;;;;10.53;6.30;;;7.60;99.90;;;;;;6146690;23;20147;-78
2021/11/06 01:49:40;;;;;;;12.87;7.73;;;7.60;99.90;;;;;;6120159;23;20194;-78
2021/11/06 01:52:06;;;;;;;12.00;6.17;;;7.70;99.90;;;;;;6146342;23;20987;-78
2021/11/06 01:54:32;;;;;;;11.23;6.43;;;7.70;99.90;;;;;;6120494;23;20156;-78
2021/11/06 01:57:00;;;;;;;11.27;6.60;;;7.70;99.90;;;;;;6146504;23;20159;-78
2021/11/06 01:59:25;;;;;;;10.30;6.27;;;7.60;99.90;;;;;;6146569;23;20175;-78
2021/11/06 02:01:51;;;;;;;13.00;6.13;;;7.70;99.90;;;;;;6146229;23;20156;-78
2021/11/06 02:04:17;;;;;;;11.20;6.80;;;7.70;99.90;;;;;;6146436;23;20160;-77
2021/11/06 02:06:43;;;;;;;11.60;6.47;;;7.70;99.90;;;;;;6146631;23;20152;-78
2021/11/06 02:09:08;;;;;;;11.17;7.20;;;7.70;99.90;;;;;;6146100;23;20172;-78
2021/11/06 02:11:36;;;;;;;9.67;6.20;;;7.60;99.90;;;;;;6146384;23;20230;-78
2021/11/06 02:14:02;;;;;;;10.33;6.70;;;7.60;99.90;;;;;;6146046;23;20156;-78
2021/11/06 02:16:28;;;;;;;10.20;5.57;;;7.60;99.90;;;;;;6146300;23;20199;-79
2021/11/06 02:18:54;;;;;;;8.80;5.97;;;7.60;99.90;;;;;;6076141;23;1067318;-78
2021/11/06 02:21:20;;;;;;;9.23;6.10;;;7.50;99.90;;;;;;6146677;23;20180;-79
2021/11/06 02:23:48;;;;;;;10.27;6.10;;;7.40;99.90;;;;;;6147281;23;20201;-78
2021/11/06 02:26:16;;;;;;;10.53;5.90;;;7.40;99.90;;;;;;6147519;23;20604;-78
2021/11/06 02:28:48;;;;;;;11.70;6.53;;;7.40;99.90;;;;;;6147662;23;20498;-78
2021/11/06 02:31:14;;;;;;;9.53;5.70;;;7.40;99.90;;;;;;6147738;23;20604;-78
2021/11/06 02:33:40;;;;;;;9.90;5.93;;;7.30;99.90;;;;;;6147527;23;20235;-78
2021/11/06 02:36:06;;;;;;;8.67;5.87;;;7.30;99.90;;;;;;6147496;23;20596;-78
2021/11/06 02:38:32;;;;;;;13.33;5.50;;;7.30;99.90;;;;;;6147321;23;20254;-79
2021/11/06 02:40:58;;;;;;;11.20;6.13;;;7.30;99.90;;;;;;6146810;23;20199;-78
2021/11/06 02:43:24;;;;;;;10.00;5.33;;;7.20;99.90;;;;;;6147254;23;20152;-78
2021/11/06 02:45:50;;;;;;;9.73;5.77;;;7.30;99.90;;;;;;6147607;23;20239;-78
2021/11/06 02:48:15;;;;;;;9.93;5.50;;;7.40;99.90;;;;;;6121966;23;20203;-79
2021/11/06 02:50:41;;;;;;;9.97;5.63;;;7.40;99.90;;;;;;6148208;23;20713;-80
2021/11/06 02:53:07;;;;;;;10.33;6.30;;;7.30;99.90;;;;;;6148545;23;20187;-78
2021/11/06 02:55:33;;;;;;;10.33;6.50;;;7.30;99.90;;;;;;6148408;23;20144;-79
2021/11/06 02:57:58;;;;;;;8.67;5.63;;;7.30;99.90;;;;;;6147727;23;20443;-78
2021/11/06 03:00:27;;;;;;;11.43;6.33;;;7.30;99.90;;;;;;6147270;23;20186;-78
2021/11/06 03:02:54;;;;;;;8.30;5.40;;;7.40;99.90;;;;;;6147747;23;20160;-79
2021/11/06 03:05:20;;;;;;;8.93;6.00;;;7.30;99.90;;;;;;6147851;23;20155;-78
2021/11/06 03:07:45;;;;;;;7.70;5.10;;;7.30;99.90;;;;;;6147446;23;20198;-78
2021/11/06 03:10:12;;;;;;;9.77;5.70;;;7.40;99.90;;;;;;6147636;23;20155;-79
2021/11/06 03:12:39;;;;;;;8.40;5.73;;;7.30;99.90;;;;;;6121341;23;20168;-78
2021/11/06 03:15:05;;;;;;;10.40;6.17;;;7.20;99.90;;;;;;6121567;23;20163;-79
2021/11/06 03:17:31;;;;;;;8.30;5.17;;;7.20;99.90;;;;;;6147850;23;20180;-78
2021/11/06 03:19:57;;;;;;;7.87;5.13;;;7.30;99.90;;;;;;6147679;23;20167;-79
2021/11/06 03:22:23;;;;;;;7.60;5.00;;;7.30;99.90;;;;;;6120970;23;20160;-79
2021/11/06 03:24:48;;;;;;;9.70;5.83;;;7.30;99.90;;;;;;6148229;23;20159;-78
2021/11/06 03:27:14;;;;;;;12.50;6.27;;;7.20;99.90;;;;;;6147398;23;20155;-78
2021/11/06 03:29:40;;;;;;;8.67;6.30;;;7.30;99.90;;;;;;6147434;23;20195;-78
2021/11/06 03:32:07;;;;;;;9.90;6.10;;;7.30;99.90;;;;;;6147282;23;21130;-79
2021/11/06 03:34:33;;;;;;;9.87;6.63;;;7.30;99.90;;;;;;6121452;23;20163;-78
2021/11/06 03:37:00;;;;;;;10.93;6.70;;;7.30;99.90;;;;;;6121017;23;20167;-79
2021/11/06 03:39:25;;;;;;;10.23;6.57;;;7.20;99.90;;;;;;6147001;23;20176;-78
2021/11/06 03:41:51;;;;;;;9.97;6.53;;;7.30;99.90;;;;;;6146805;23;20198;-79
2021/11/06 03:44:17;;;;;;;10.53;7.03;;;7.30;99.90;;;;;;6147216;23;20175;-79
2021/11/06 03:46:43;;;;;;;10.07;6.13;;;7.20;99.90;;;;;;6147075;23;20536;-80
2021/11/06 03:49:08;;;;;;;11.27;6.73;;;7.20;99.90;;;;;;6121118;23;20270;-79
2021/11/06 03:51:34;;;;;;;12.83;6.90;;;7.30;99.90;;;;;;6147580;23;20246;-78
2021/11/06 03:54:00;;;;;;;9.17;6.30;;;7.30;99.90;;;;;;6147831;23;20155;-78
2021/11/06 03:56:26;;;;;;;13.03;6.97;;;7.30;99.90;;;;;;6148455;23;20162;-77
2021/11/06 03:58:52;;;;;;;11.13;6.90;;;7.20;99.90;;;;;;6146796;23;20254;-77
2021/11/06 04:01:19;;;;;;;12.90;6.57;;;7.30;99.90;;;;;;6119985;23;20187;-77
2021/11/06 04:03:44;;;;;;;12.03;6.77;;;7.30;99.90;;;;;;6146490;23;20156;-74
2021/11/06 04:06:10;;;;;;;9.77;6.70;;;7.30;99.90;;;;;;6146590;23;20179;-79
2021/11/06 04:08:36;;;;;;;10.60;7.40;;;7.30;99.90;;;;;;6147343;23;20198;-79
2021/11/06 04:11:02;;;;;;;15.60;7.83;;;7.30;99.90;;;;;;6120911;23;20681;-79
2021/11/06 04:13:27;;;;;;;14.43;7.50;;;7.30;99.90;;;;;;6147303;23;20238;-79
2021/11/06 04:15:53;;;;;;;11.30;7.00;;;7.30;99.90;;;;;;6147155;23;20222;-78
2021/11/06 04:18:19;;;;;;;11.77;6.97;;;7.30;99.90;;;;;;6147497;23;20683;-79
2021/11/06 04:20:45;;;;;;;9.33;6.70;;;7.30;99.90;;;;;;6146991;23;20171;-79
2021/11/06 04:23:10;;;;;;;13.23;7.67;;;7.30;99.90;;;;;;6146984;23;20156;-79
2021/11/06 04:25:36;;;;;;;10.87;7.03;;;7.20;99.90;;;;;;6147568;23;20222;-80
2021/11/06 04:28:02;;;;;;;12.57;7.10;;;7.30;99.90;;;;;;6147209;23;20179;-79
2021/11/06 04:30:28;;;;;;;10.60;6.87;;;7.30;99.90;;;;;;6147529;23;20155;-78
2021/11/06 04:32:53;;;;;;;10.60;7.07;;;7.30;99.90;;;;;;6147289;23;20235;-79
2021/11/06 04:35:19;;;;;;;10.87;6.87;;;7.40;99.90;;;;;;6147649;23;20163;-78
2021/11/06 04:37:45;;;;;;;11.10;6.57;;;7.40;99.90;;;;;;6120997;23;20882;-79
2021/11/06 04:40:12;;;;;;;11.03;6.87;;;7.40;99.90;;;;;;6147042;23;20626;-80
2021/11/06 04:42:38;;;;;;;10.07;6.83;;;7.50;99.90;;;;;;6146996;23;20171;-79
2021/11/06 04:45:05;;;;;;;13.83;7.43;;;7.40;99.90;;;;;;6148044;23;20596;-78
2021/11/06 04:47:31;;;;;;;10.83;5.90;;;7.50;99.90;;;;;;6123133;23;20548;-79
2021/11/06 04:49:57;;;;;;;9.73;5.80;;;7.50;99.90;;;;;;6149072;23;20159;-79
2021/11/06 04:52:23;;;;;;;8.67;6.47;;;7.50;99.90;;;;;;6148856;23;20596;-79
2021/11/06 04:54:49;;;;;;;8.03;6.17;;;7.60;99.90;;;;;;6149922;23;20160;-78
2021/11/06 04:57:15;;;;;;;8.30;6.40;;;7.50;99.90;;;;;;6149141;23;20163;-80
2021/11/06 04:59:40;;;;;;;9.17;6.37;;;7.60;99.90;;;;;;6149098;23;20184;-79
2021/11/06 05:02:06;;;;;;;7.53;5.53;;;7.60;99.90;;;;;;6149479;23;20151;-81
2021/11/06 05:04:33;;;;;;;8.23;5.90;;;7.60;99.90;;;;;;6149333;23;20155;-79
2021/11/06 05:06:58;;;;;;;5.60;5.10;;;7.60;99.90;;;;;;6149111;23;20537;-78
2021/11/06 05:09:24;;;;;;;8.40;5.30;;;7.70;99.90;;;;;;6148955;23;20174;-79
2021/11/06 05:11:50;;;;;;;7.93;5.03;;;7.70;99.90;;;;;;6148376;23;20227;-79
2021/11/06 05:14:17;;;;;;;9.33;5.33;;;7.80;99.90;;;;;;6122807;23;20159;-79
2021/11/06 05:16:43;;;;;;;7.63;5.10;;;7.80;99.90;;;;;;6149067;23;20155;-78
2021/11/06 05:19:08;;;;;;;5.50;4.47;;;7.80;99.90;;;;;;6148781;23;20187;-79
2021/11/06 05:21:37;;;;;;;9.63;5.07;;;7.80;99.90;;;;;;6148405;23;20213;-79
2021/11/06 05:24:05;;;;;;;5.67;4.53;;;7.80;99.90;;;;;;6122464;23;20175;-79
2021/11/06 05:26:31;;;;;;;5.87;5.00;;;7.70;99.90;;;;;;6148869;23;20223;-78
2021/11/06 05:28:57;;;;;;;6.90;5.00;;;7.70;99.90;;;;;;6148739;23;20179;-79
2021/11/06 05:31:23;;;;;;;5.63;4.60;;;7.60;99.90;;;;;;6149039;23;20156;-79
2021/11/06 05:33:48;;;;;;;6.67;5.23;;;7.70;99.90;;;;;;6148401;23;20169;-79
2021/11/06 05:36:14;;;;;;;6.13;5.07;;;7.70;99.90;;;;;;6122840;23;20191;-78
2021/11/06 05:38:40;;;;;;;6.30;4.47;;;7.70;99.90;;;;;;6122714;23;20183;-79
2021/11/06 05:41:06;;;;;;;6.43;5.00;;;7.70;99.90;;;;;;6148410;23;20500;-79
2021/11/06 05:43:31;;;;;;;6.53;5.20;;;7.80;99.90;;;;;;6148624;23;20148;-79
2021/11/06 05:45:57;;;;;;;6.73;4.80;;;7.80;99.90;;;;;;6148770;23;20466;-79
2021/11/06 05:48:22;;;;;;;6.17;5.33;;;7.80;99.90;;;;;;6121900;23;20186;-79
2021/11/06 05:50:49;;;;;;;8.30;5.53;;;7.80;99.90;;;;;;6122255;23;20218;-78
2021/11/06 05:53:14;;;;;;;7.10;5.53;;;7.70;99.90;;;;;;6148147;23;20210;-79
2021/11/06 05:55:40;;;;;;;7.83;5.67;;;7.70;99.90;;;;;;6147909;23;20164;-78
2021/11/06 05:58:07;;;;;;;7.53;5.00;;;7.60;99.90;;;;;;6122106;23;20190;-79
2021/11/06 06:00:33;;;;;;;6.80;5.30;;;7.60;99.90;;;;;;6148337;23;20175;-80
2021/11/06 06:02:58;;;;;;;6.77;5.70;;;7.60;99.90;;;;;;6148200;23;20220;-79
2021/11/06 06:05:24;;;;;;;7.27;5.23;;;7.50;99.90;;;;;;6147866;23;20156;-78
2021/11/06 06:07:50;;;;;;;7.73;5.33;;;7.50;99.90;;;;;;6148280;23;20557;-79
2021/11/06 06:10:17;;;;;;;5.60;4.87;;;7.50;99.90;;;;;;6147780;23;20537;-79
2021/11/06 06:12:44;;;;;;;6.63;5.30;;;7.60;99.90;;;;;;6122028;23;20214;-79
2021/11/06 06:15:10;;;;;;;7.17;4.93;;;7.60;99.90;;;;;;6148119;23;20156;-79
2021/11/06 06:17:37;;;;;;;5.10;4.60;;;7.60;99.90;;;;;;6148234;23;20683;-78
2021/11/06 06:20:05;;;;;;;6.83;4.73;;;7.50;99.90;;;;;;6121525;23;20192;-79
2021/11/06 06:22:31;;;;;;;6.20;4.13;;;7.50;99.90;;;;;;6121890;23;20160;-80
2021/11/06 06:24:56;;;;;;;5.63;4.80;;;7.50;99.90;;;;;;6148133;23;20160;-80
2021/11/06 06:27:22;;;;;;;5.83;4.50;;;7.30;99.90;;;;;;6122148;23;20216;-79
2021/11/06 06:29:47;;;;;;;5.03;4.53;;;7.40;99.90;;;;;;6147789;23;20176;-78
2021/11/06 06:32:13;;;;;;;6.13;5.07;;;7.30;99.90;;;;;;6147831;23;20167;-79
2021/11/06 06:34:39;;;;;;;5.40;4.23;;;7.30;99.90;;;;;;6148157;23;20163;-79
2021/11/06 06:37:04;;;;;;;5.87;4.07;;;7.40;99.90;;;;;;6148005;23;20160;-79
2021/11/06 06:39:30;;;;;;;5.53;4.27;;;7.40;99.90;;;;;;6143521;23;20186;-78
2021/11/06 06:41:56;;;;;;;4.73;4.20;;;7.30;99.90;;;;;;6146164;23;20190;-79
2021/11/06 06:44:21;;;;;;;5.10;3.97;;;7.30;99.90;;;;;;6146773;23;20155;-79
2021/11/06 06:46:47;;;;;;;4.27;3.87;;;7.20;99.90;;;;;;6146736;23;20187;-79
2021/11/06 06:49:13;;;;;;;6.00;4.40;;;7.20;99.90;;;;;;6146886;23;20504;-78
2021/11/06 06:51:38;;;;;;;5.13;3.80;;;7.10;99.90;;;;;;6148304;23;20136;-79
2021/11/06 06:54:04;;;;;;;6.00;3.90;;;7.20;99.90;;;;;;6147917;23;20163;-79
2021/11/06 06:56:31;;;;;;;5.13;3.80;;;7.10;99.90;;;;;;6147519;23;20235;-79
2021/11/06 06:58:56;;;;;;;5.80;3.70;;;7.10;99.90;;;;;;6147759;23;20179;-79
2021/11/06 07:01:22;;;;;;;3.33;3.00;;;7.00;99.90;;;;;;6146776;23;20191;-79
2021/11/06 07:03:47;;;;;;;4.23;3.40;;;7.10;99.90;;;;;;6147663;23;20246;-78
2021/11/06 07:06:13;;;;;;;3.77;3.37;;;7.20;99.90;;;;;;6121129;23;20631;-79
2021/11/06 07:08:39;;;;;;;7.37;3.50;;;7.10;99.90;;;;;;6144773;23;20271;-81
2021/11/06 07:11:04;;;;;;;6.70;3.70;;;7.20;99.90;;;;;;6118290;23;20169;-80
2021/11/06 07:13:33;;;;;;;5.33;3.47;;;7.20;99.90;;;;;;6145473;23;20401;-80
2021/11/06 07:15:58;;;;;;;6.60;3.40;;;7.20;99.90;;;;;;6146168;23;20238;-81
2021/11/06 07:18:24;;;;;;;5.67;3.90;;;7.20;99.90;;;;;;6146209;23;20218;-82
2021/11/06 07:20:50;;;;;;;4.77;3.70;;;7.20;99.90;;;;;;6145959;23;20262;-82
2021/11/06 07:23:15;;;;;;;4.77;3.10;;;7.20;99.90;;;;;;6145427;23;20495;-78
2021/11/06 07:25:41;;;;;;;4.60;3.33;;;7.20;99.90;;;;;;6144482;23;20156;-79
2021/11/06 07:28:07;;;;;;;5.23;3.07;;;7.20;99.90;;;;;;6143610;23;20171;-81
2021/11/06 07:30:32;;;;;;;3.70;2.93;;;7.20;99.90;;;;;;6144402;23;20160;-79
2021/11/06 07:32:58;;;;;;;4.27;2.83;;;7.40;99.90;;;;;;6118624;23;20329;-78
2021/11/06 07:35:23;;;;;;;4.47;3.07;;;7.30;99.90;;;;;;6148325;23;20160;-79
2021/11/06 07:37:49;;;;;;;4.77;3.10;;;7.50;99.90;;;;;;6120053;23;20187;-78
2021/11/06 07:40:15;;;;;;;5.17;3.10;;;7.50;99.90;;;;;;6117264;23;20628;-78
2021/11/06 07:42:42;;;;;;;4.07;3.10;;;7.50;99.90;;;;;;6123772;23;20596;-79
2021/11/06 07:45:11;;;;;;;5.27;3.00;;;7.50;99.90;;;;;;6150812;23;20160;-80
2021/11/06 07:47:36;;;;;;;3.73;2.53;;;7.60;99.90;;;;;;6146642;23;20217;-80
2021/11/06 07:50:06;;;;;;;4.23;2.93;;;7.60;99.90;;;;;;6148283;23;20536;-78
2021/11/06 07:52:32;;;;;;;5.37;2.67;;;7.70;99.90;;;;;;6119553;23;20160;-80
2021/11/06 07:54:58;;;;;;;3.97;2.63;;;7.70;99.90;;;;;;6146033;23;20152;-81
2021/11/06 07:57:23;;;;;;;3.73;2.67;;;7.70;99.90;;;;;;6147464;23;20247;-80
2021/11/06 07:59:49;;;;;;;5.30;2.77;;;7.80;99.90;;;;;;6121317;23;20535;-78
2021/11/06 08:02:15;;;;;;;4.80;2.47;;;7.90;99.90;;;;;;6123726;23;20163;-81
2021/11/06 08:04:40;;;;;;;4.70;2.13;;;8.00;99.90;;;;;;6124204;23;20156;-80
2021/11/06 08:07:06;;;;;;;4.63;2.50;;;8.10;99.90;;;;;;6146509;23;20537;-78
2021/11/06 08:09:31;;;;;;;3.80;2.53;;;8.20;99.90;;;;;;6120550;23;20202;-78
2021/11/06 08:11:57;;;;;;;3.93;2.33;;;8.30;99.90;;;;;;6146338;23;20159;-79
2021/11/06 08:14:23;;;;;;;4.60;2.57;;;8.40;99.90;;;;;;6147344;23;20152;-78
2021/11/06 08:16:50;;;;;;;5.97;2.60;;;8.60;99.90;;;;;;6147359;23;20199;-79
2021/11/06 08:19:16;;;;;;;3.73;2.17;;;8.90;99.90;;;;;;6147776;23;20187;-79
2021/11/06 08:21:42;;;;;;;2.77;2.13;;;8.90;99.90;;;;;;6148655;23;20263;-79
2021/11/06 08:24:08;;;;;;;4.27;2.20;;;8.90;99.90;;;;;;6149350;23;20234;-78
2021/11/06 08:26:34;;;;;;;4.03;2.37;;;8.90;99.90;;;;;;6149390;23;20608;-78
2021/11/06 08:29:00;;;;;;;3.03;2.17;;;8.90;99.90;;;;;;6122956;23;20267;-78
2021/11/06 08:31:26;;;;;;;3.37;2.33;;;8.80;99.90;;;;;;6148788;23;20156;-79
2021/11/06 08:33:51;;;;;;;4.23;1.93;;;8.80;99.90;;;;;;6149251;23;20159;-79
2021/11/06 08:36:17;;;;;;;2.83;2.00;;;8.80;99.90;;;;;;6149351;23;21152;-79
2021/11/06 08:38:43;;;;;;;4.67;2.17;;;8.80;99.90;;;;;;6148891;23;20182;-78
2021/11/06 08:41:09;;;;;;;4.40;2.23;;;8.90;99.90;;;;;;6148832;23;20187;-78
2021/11/06 08:43:34;;;;;;;4.03;2.20;;;9.00;99.90;;;;;;6148391;23;20158;-78
2021/11/06 08:46:01;;;;;;;2.83;2.00;;;9.00;99.90;;;;;;6149159;23;20230;-79
2021/11/06 08:48:27;;;;;;;3.43;2.30;;;9.00;99.90;;;;;;6148676;23;20229;-78
2021/11/06 08:50:53;;;;;;;3.30;1.73;;;9.10;99.90;;;;;;6147986;23;20148;-79
2021/11/06 08:53:19;;;;;;;4.27;2.03;;;9.30;99.90;;;;;;6120737;23;20164;-78
2021/11/06 08:55:44;;;;;;;3.23;2.17;;;9.30;99.90;;;;;;6123480;23;20489;-79
2021/11/06 08:58:10;;;;;;;6.60;2.47;;;9.20;99.90;;;;;;6149971;23;20172;-79
2021/11/06 09:00:43;;;;;;;3.93;2.47;;;9.30;99.90;;;;;;6150596;23;20175;-79
2021/11/06 09:03:18;;;;;;;3.93;2.10;;;9.40;99.90;;;;;;6148978;23;20159;-80
2021/11/06 09:05:50;;;;;;;5.87;2.03;;;9.40;99.90;;;;;;6124830;23;20158;-78
2021/11/06 09:08:22;;;;;;;5.33;3.27;;;9.40;99.90;;;;;;6151597;23;20172;-79
2021/11/06 09:10:48;;;;;;;9.43;6.77;;;9.40;99.90;;;;;;6125450;23;20629;-79
2021/11/06 09:13:14;;;;;;;5.43;3.53;;;9.50;99.90;;;;;;6123271;23;20163;-78
2021/11/06 09:15:40;;;;;;;9.70;6.27;;;9.50;99.90;;;;;;6150209;23;20589;-79
2021/11/06 09:18:06;;;;;;;7.77;4.07;;;9.60;99.90;;;;;;6149632;23;20515;-81
2021/11/06 09:20:33;;;;;;;5.53;3.20;;;9.50;99.90;;;;;;6151493;23;20175;-80
2021/11/06 09:22:58;;;;;;;5.17;2.70;;;9.60;99.90;;;;;;6151927;23;20158;-79
2021/11/06 09:25:24;;;;;;;3.53;2.60;;;9.70;99.90;;;;;;6151804;23;20148;-79
2021/11/06 09:27:50;;;;;;;4.57;2.60;;;9.80;99.90;;;;;;6150054;23;20172;-79
2021/11/06 09:30:16;;;;;;;3.13;2.53;;;9.70;99.90;;;;;;6123667;23;20167;-78
2021/11/06 09:32:42;;;;;;;5.13;2.83;;;9.80;99.90;;;;;;6147555;23;20190;-79
2021/11/06 09:35:09;;;;;;;4.20;2.67;;;9.90;99.90;;;;;;6148329;23;20159;-78
2021/11/06 09:37:36;;;;;;;3.50;2.43;;;9.80;99.90;;;;;;6147978;23;20163;-79
2021/11/06 09:40:06;;;;;;;4.53;2.40;;;9.80;99.90;;;;;;6150655;23;20317;-79
2021/11/06 09:42:32;;;;;;;3.93;2.87;;;9.70;99.90;;;;;;6151113;23;20597;-79
2021/11/06 09:44:58;;;;;;;3.30;2.20;;;9.80;99.90;;;;;;6151205;23;20202;-79
2021/11/06 09:47:23;;;;;;;3.70;2.57;;;9.80;99.90;;;;;;6126066;23;20159;-78
2021/11/06 09:49:49;;;;;;;3.83;2.13;;;9.90;99.90;;;;;;6151763;23;20179;-79
2021/11/06 09:52:16;;;;;;;3.07;2.03;;;10.00;99.90;;;;;;6150849;23;20155;-78
2021/11/06 09:54:42;;;;;;;4.20;2.00;;;10.00;99.90;;;;;;6152023;23;20159;-77
2021/11/06 09:57:08;;;;;;;2.40;1.87;;;10.10;99.90;;;;;;6125672;23;20641;-79
2021/11/06 09:59:34;;;;;;;2.47;1.90;;;10.10;99.90;;;;;;6151416;23;20178;-78
2021/11/06 10:02:03;;;;;;;3.63;2.30;;;10.20;99.90;;;;;;6150985;23;20179;-79
2021/11/06 10:04:30;;;;;;;3.40;2.00;;;10.10;99.90;;;;;;6125669;23;20162;-79
2021/11/06 10:07:12;;;;;;;2.50;1.90;;;10.20;99.90;;;;;;6151832;23;20548;-78
2021/11/06 10:09:38;;;;;;;2.80;1.93;;;10.20;99.90;;;;;;6125244;23;20218;-79
2021/11/06 10:12:05;;;;;;;3.00;1.87;;;10.20;99.90;;;;;;6151551;23;20152;-79
2021/11/06 10:14:31;;;;;;;2.83;1.73;;;10.20;99.90;;;;;;6151454;23;20613;-78
2021/11/06 10:17:01;;;;;;;2.53;1.80;;;10.20;99.90;;;;;;6151490;23;20155;-78
2021/11/06 10:19:40;;;;;;;3.07;2.17;;;10.10;99.90;;;;;;6147773;23;20274;-79
2021/11/06 10:22:10;;;;;;;4.17;1.80;;;10.00;99.90;;;;;;6147423;23;20268;-79
2021/11/06 10:24:59;;;;;;;4.00;2.20;;;10.00;99.90;;;;;;6121695;23;20167;-78
2021/11/06 10:27:32;;;;;;;2.67;1.90;;;9.90;99.90;;;;;;6148060;23;20250;-79
2021/11/06 10:30:05;;;;;;;3.10;1.70;;;10.00;99.90;;;;;;6147609;23;20175;-78
2021/11/06 10:32:32;;;;;;;2.17;1.67;;;10.00;99.90;;;;;;6147768;23;20205;-78
2021/11/06 10:35:17;;;;;;;3.40;1.80;;;9.90;99.90;;;;;;6148303;23;20218;-79
2021/11/06 10:37:45;;;;;;;2.93;1.40;;;10.00;99.90;;;;;;6149620;23;20603;-78
2021/11/06 10:40:11;;;;;;;2.77;1.70;;;10.00;99.90;;;;;;6149980;23;20230;-78
2021/11/06 10:42:48;;;;;;;2.80;1.60;;;9.90;99.90;;;;;;6151765;23;20160;-79
2021/11/06 10:45:17;;;;;;;2.47;1.67;;;9.90;99.90;;;;;;6150989;23;20496;-78
2021/11/06 10:48:13;;;;;;;3.53;1.77;;;9.80;99.90;;;;;;6150783;23;20155;-80
2021/11/06 10:50:42;;;;;;;3.40;2.70;;;9.80;99.90;;;;;;6120117;23;20604;-78
2021/11/06 10:53:11;;;;;;;2.57;2.10;;;9.80;99.90;;;;;;6122521;23;20195;-77
2021/11/06 10:55:39;;;;;;;2.67;1.50;;;9.80;99.90;;;;;;6147516;23;20191;-77
2021/11/06 10:58:30;;;;;;;2.57;1.53;;;9.80;99.90;;;;;;6148087;23;20203;-79
2021/11/06 11:00:58;;;;;;;2.77;2.10;;;9.70;99.90;;;;;;6151939;23;20227;-78
2021/11/06 11:03:30;;;;;;;4.00;1.77;;;9.60;99.90;;;;;;6125939;23;20619;-79
2021/11/06 11:05:57;;;;;;;2.80;1.77;;;9.60;99.90;;;;;;6125350;23;21037;-78
2021/11/06 11:08:23;;;;;;;3.53;2.00;;;9.60;99.90;;;;;;6126306;23;20176;-78
2021/11/06 11:10:49;;;;;;;2.33;1.90;;;9.60;99.90;;;;;;6151671;23;20156;-79
2021/11/06 11:13:22;;;;;;;3.97;2.13;;;9.60;99.90;;;;;;6151826;23;20245;-79
2021/11/06 11:15:50;;;;;;;2.57;2.30;;;9.70;99.90;;;;;;6151028;23;20147;-79
2021/11/06 11:18:32;;;;;;;3.50;2.00;;;9.70;99.90;;;;;;6151283;23;20201;-79
2021/11/06 11:21:26;;;;;;;4.00;2.03;;;9.90;99.90;;;;;;6150017;23;20171;-80
2021/11/06 11:24:00;;;;;;;2.30;1.80;;;9.90;99.90;;;;;;6121311;23;20629;-80
2021/11/06 11:26:36;;;;;;;3.27;2.33;;;9.90;99.90;;;;;;6147804;23;20563;-79
2021/11/06 11:29:04;;;;;;;2.10;1.80;;;9.80;99.90;;;;;;6146592;23;20171;-80
2021/11/06 11:31:30;;;;;;;2.87;1.80;;;9.90;99.90;;;;;;6145426;23;20543;-79
2021/11/06 11:33:57;;;;;;;5.37;1.80;;;10.00;99.90;;;;;;6146351;23;20174;-79
2021/11/06 11:36:26;;;;;;;3.50;1.90;;;10.00;99.90;;;;;;6146596;23;21020;-80
2021/11/06 11:38:52;;;;;;;3.90;2.30;;;10.00;99.90;;;;;;6120667;23;20183;-78
2021/11/06 11:41:46;;;;;;;5.00;1.97;;;10.00;99.90;;;;;;6147368;23;20258;-78
2021/11/06 11:44:32;;;;;;;2.73;2.10;;;10.00;99.90;;;;;;6148882;23;20136;-78
2021/11/06 11:47:19;;;;;;;2.13;1.90;;;10.00;99.90;;;;;;6147324;23;20136;-80
2021/11/06 11:49:51;;;;;;;3.10;1.87;;;9.90;99.90;;;;;;6147832;23;20182;-78
2021/11/06 11:52:37;;;;;;;4.83;2.07;;;9.80;99.90;;;;;;6148311;23;20496;-78
2021/11/06 11:55:19;;;;;;;2.67;1.93;;;9.80;99.90;;;;;;6121981;23;20170;-78
2021/11/06 11:58:03;;;;;;;2.83;2.10;;;9.80;99.90;;;;;;6149758;23;20476;-78
2021/11/06 12:00:29;;;;;;;2.97;2.23;;;9.80;99.90;;;;;;6147536;23;20174;-76
2021/11/06 12:03:00;;;;;;;3.77;2.50;;;9.70;99.90;;;;;;6147954;23;20151;-78
2021/11/06 12:05:35;;;;;;;3.07;2.20;;;9.70;99.90;;;;;;6144275;23;20155;-78
2021/11/06 12:08:14;;;;;;;2.70;2.23;;;9.60;99.90;;;;;;6145972;23;20174;-77
2021/11/06 12:10:48;;;;;;;3.37;2.77;;;9.50;99.90;;;;;;6146197;23;20160;-78
2021/11/06 12:16:00;;;;;;;3.80;2.97;;;9.50;99.90;;;;;;6146078;23;20658;-79
2021/11/06 12:18:40;;;;;;;2.47;2.27;;;9.50;99.90;;;;;;6145434;23;20647;-78
2021/11/06 12:21:15;;;;;;;3.40;2.20;;;9.50;99.90;;;;;;6119312;23;20183;-77
2021/11/06 12:23:42;;;;;;;3.30;2.63;;;9.50;99.90;;;;;;6145892;23;20128;-78
2021/11/06 12:26:21;;;;;;;2.57;2.23;;;9.50;99.90;;;;;;6119605;23;20160;-78
2021/11/06 12:28:48;;;;;;;3.47;2.17;;;9.50;99.90;;;;;;6145476;23;20632;-78
2021/11/06 12:31:23;;;;;;;4.37;2.30;;;9.50;99.90;;;;;;6145910;23;20255;-80
2021/11/06 12:33:49;;;;;;;2.93;2.00;;;9.50;99.90;;;;;;6120054;23;20167;-78
2021/11/06 12:36:26;;;;;;;2.13;1.90;;;9.50;99.90;;;;;;6121075;23;20616;-78
2021/11/06 12:38:59;;;;;;;2.73;2.10;;;9.50;99.90;;;;;;6120096;23;20238;-78
2021/11/06 12:41:35;;;;;;;2.30;2.07;;;9.50;99.90;;;;;;6143354;23;20479;-78
2021/11/06 12:44:04;;;;;;;3.97;2.13;;;9.50;99.90;;;;;;6143904;23;20132;-78
2021/11/06 12:46:33;;;;;;;4.23;2.00;;;9.50;99.90;;;;;;6117651;23;20156;-79
2021/11/06 12:49:03;;;;;;;2.27;1.83;;;9.60;99.90;;;;;;6143643;23;20175;-77
2021/11/06 12:51:33;;;;;;;2.40;2.13;;;9.60;99.90;;;;;;6143387;23;20600;-78
2021/11/06 12:54:05;;;;;;;2.33;2.00;;;9.60;99.90;;;;;;6117808;23;20163;-77
2021/11/06 12:56:54;;;;;;;5.00;2.03;;;9.60;99.90;;;;;;6144046;23;20179;-79